Time;durP1;ratioP1;P1;durP2;ratioP2;P2;SDS_P1;SDS_P2;PMS_P1;PMS_P2;Temp;Humidity;BMP_temperature;BMP_pressure;BME280_temperature;BME280_humidity;BME280_pressure;Samples;Min_cycle;Max_cycle;Signal;HPM_P1;HPM_P2
2024/05/07 00:00:23;;;;;;;4.03;3.67;;;17.70;75.10;;;;;;5389659;26;20470;-85
2024/05/07 00:02:51;;;;;;;4.40;4.10;;;17.70;75.20;;;;;;5376178;26;20474;-85
2024/05/07 00:05:20;;;;;;;3.93;3.73;;;17.70;75.30;;;;;;5376479;26;20482;-85
2024/05/07 00:07:48;;;;;;;4.30;4.10;;;17.70;75.30;;;;;;5381672;26;20487;-85
2024/05/07 00:10:17;;;;;;;5.17;4.70;;;17.80;75.80;;;;;;5398094;26;20609;-85
2024/05/07 00:12:47;;;;;;;3.93;3.77;;;17.80;75.60;;;;;;5383039;26;20538;-85
2024/05/07 00:15:16;;;;;;;4.37;4.17;;;17.80;75.60;;;;;;5378899;26;20539;-84
2024/05/07 00:17:45;;;;;;;3.97;3.77;;;17.70;75.90;;;;;;5377450;26;20521;-85
2024/05/07 00:20:13;;;;;;;4.60;4.40;;;17.70;76.40;;;;;;5377149;26;20467;-85
2024/05/07 00:22:41;;;;;;;4.77;4.27;;;17.90;76.70;;;;;;5377586;26;20493;-85
2024/05/07 00:25:10;;;;;;;4.67;4.47;;;17.60;75.10;;;;;;5394081;26;20483;-85
2024/05/07 00:27:38;;;;;;;4.23;3.90;;;17.60;75.00;;;;;;5382741;26;20555;-83
2024/05/07 00:30:10;;;;;;;4.43;4.23;;;17.60;75.20;;;;;;5373162;26;20579;-84
2024/05/07 00:32:38;;;;;;;4.70;4.30;;;17.60;75.60;;;;;;5374802;26;20530;-84
2024/05/07 00:35:07;;;;;;;4.90;4.60;;;17.60;75.40;;;;;;5377269;26;20493;-84
2024/05/07 00:37:35;;;;;;;6.70;6.27;;;17.60;75.90;;;;;;5395451;26;20530;-84
2024/05/07 00:40:04;;;;;;;5.20;4.80;;;17.60;75.90;;;;;;5395845;26;20523;-84
2024/05/07 00:42:33;;;;;;;4.20;4.00;;;17.60;76.10;;;;;;5398766;26;20482;-84
2024/05/07 00:45:02;;;;;;;5.20;4.80;;;17.60;76.40;;;;;;5376693;26;20536;-85
2024/05/07 00:47:33;;;;;;;6.63;5.27;;;17.60;76.50;;;;;;5375305;26;20455;-87
2024/05/07 00:50:01;;;;;;;4.63;4.30;;;17.50;76.90;;;;;;5376398;26;21027;-86
2024/05/07 00:52:30;;;;;;;5.27;4.87;;;17.50;77.10;;;;;;5390101;26;20554;-87
2024/05/07 00:54:58;;;;;;;4.80;4.40;;;17.60;77.60;;;;;;5411940;21;21076;-83
2024/05/07 00:57:27;;;;;;;4.40;4.10;;;17.70;78.30;;;;;;5459216;26;20476;-83
2024/05/07 00:59:56;;;;;;;4.80;4.40;;;17.60;78.50;;;;;;5460593;26;20526;-83
2024/05/07 01:02:24;;;;;;;4.27;4.00;;;17.30;78.20;;;;;;5446690;26;20491;-82
2024/05/07 01:04:56;;;;;;;4.40;4.20;;;17.30;78.30;;;;;;5456219;26;20528;-82
2024/05/07 01:07:24;;;;;;;4.80;4.43;;;17.50;78.90;;;;;;5435732;26;20476;-82
2024/05/07 01:09:53;;;;;;;5.30;4.90;;;17.20;78.40;;;;;;5448516;26;20609;-82
2024/05/07 01:12:21;;;;;;;5.60;5.10;;;17.50;78.90;;;;;;5435884;26;20850;-82
2024/05/07 01:14:49;;;;;;;4.43;4.23;;;17.10;78.90;;;;;;5435305;26;21062;-83
2024/05/07 01:17:18;;;;;;;4.93;4.63;;;17.10;79.30;;;;;;5421573;26;20901;-83
2024/05/07 01:19:46;;;;;;;4.90;4.60;;;17.00;79.40;;;;;;5422311;26;21162;-83
2024/05/07 01:22:20;;;;;;;5.13;4.40;;;17.40;79.90;;;;;;5438462;26;20538;-83
2024/05/07 01:24:51;;;;;;;5.57;5.00;;;17.30;80.00;;;;;;5440233;26;20483;-81
2024/05/07 01:27:19;;;;;;;4.80;4.50;;;17.10;80.00;;;;;;5436549;26;20549;-80
2024/05/07 01:29:48;;;;;;;3.93;3.73;;;17.10;80.00;;;;;;5429486;26;20540;-81
2024/05/07 01:32:16;;;;;;;4.70;4.40;;;17.20;80.30;;;;;;5455072;26;20518;-82
2024/05/07 01:34:44;;;;;;;4.27;4.07;;;17.20;80.20;;;;;;5455245;26;20955;-82
2024/05/07 01:37:13;;;;;;;5.33;4.93;;;17.20;80.30;;;;;;5434359;26;21011;-81
2024/05/07 01:39:41;;;;;;;4.40;4.20;;;17.30;80.40;;;;;;5442361;26;20652;-81
2024/05/07 01:42:12;;;;;;;4.60;4.40;;;17.30;80.40;;;;;;5433886;26;20557;-81
2024/05/07 01:44:40;;;;;;;4.70;4.40;;;17.30;80.30;;;;;;5419086;26;20928;-81
2024/05/07 01:47:09;;;;;;;4.27;4.07;;;17.30;80.40;;;;;;5417676;26;20611;-81
2024/05/07 01:49:37;;;;;;;4.57;4.37;;;17.20;80.70;;;;;;5445035;26;20566;-81
2024/05/07 01:52:06;;;;;;;4.80;4.50;;;17.30;80.70;;;;;;5455136;26;20524;-80
2024/05/07 01:54:35;;;;;;;4.30;4.10;;;17.20;81.00;;;;;;5435127;26;20488;-81
2024/05/07 01:57:03;;;;;;;4.73;4.30;;;17.20;81.30;;;;;;5449855;26;20542;-81
2024/05/07 01:59:34;;;;;;;4.47;4.27;;;17.30;81.70;;;;;;5441865;26;21114;-81
2024/05/07 02:02:03;;;;;;;4.43;4.23;;;17.20;81.60;;;;;;5418608;26;20494;-81
2024/05/07 02:04:31;;;;;;;4.20;4.00;;;17.20;81.60;;;;;;5419309;26;20921;-81
2024/05/07 02:07:01;;;;;;;4.10;3.97;;;17.20;81.40;;;;;;5418773;26;20466;-82
2024/05/07 02:09:30;;;;;;;5.27;4.97;;;17.30;81.70;;;;;;5419277;26;20467;-81
2024/05/07 02:11:58;;;;;;;4.97;4.73;;;17.30;81.50;;;;;;5418793;26;20510;-82
2024/05/07 02:14:27;;;;;;;5.27;5.00;;;17.20;81.70;;;;;;5419224;26;20478;-82
2024/05/07 02:16:58;;;;;;;5.20;4.80;;;17.20;81.80;;;;;;5418049;26;20501;-82
2024/05/07 02:19:26;;;;;;;5.57;5.13;;;17.20;82.00;;;;;;5420606;26;20552;-82
2024/05/07 02:21:54;;;;;;;5.80;5.40;;;17.10;82.10;;;;;;5445755;26;20490;-82
2024/05/07 02:24:23;;;;;;;4.43;4.23;;;17.30;82.40;;;;;;5440480;26;20615;-82
2024/05/07 02:26:51;;;;;;;4.93;4.63;;;17.00;82.40;;;;;;5419014;26;20534;-82
2024/05/07 02:29:20;;;;;;;4.87;4.57;;;17.00;82.80;;;;;;5419863;26;20482;-84
2024/05/07 02:31:48;;;;;;;4.97;4.57;;;17.10;83.20;;;;;;5453768;26;20623;-82
2024/05/07 02:34:19;;;;;;;5.43;5.03;;;17.10;83.90;;;;;;5454782;26;20459;-82
2024/05/07 02:36:45;;;;;;;5.00;4.70;;;17.20;82.80;;;;;;5440848;26;20484;-82
2024/05/07 02:39:13;;;;;;;4.87;4.57;;;17.10;82.60;;;;;;5431967;26;20530;-81
2024/05/07 02:41:42;;;;;;;4.67;4.37;;;17.10;82.80;;;;;;5416603;26;20248;-81
2024/05/07 02:44:08;;;;;;;4.57;4.33;;;17.20;83.20;;;;;;5417875;26;20511;-81
2024/05/07 02:46:36;;;;;;;4.20;4.00;;;17.20;83.70;;;;;;5425280;26;20607;-81
2024/05/07 02:49:04;;;;;;;5.27;4.97;;;17.20;83.90;;;;;;5440825;26;20354;-81
2024/05/07 02:51:35;;;;;;;5.37;4.97;;;17.20;83.90;;;;;;5439096;26;20573;-81
2024/05/07 02:54:04;;;;;;;4.10;3.90;;;17.20;83.80;;;;;;5455380;26;20482;-83
2024/05/07 02:56:32;;;;;;;5.03;4.63;;;17.20;84.00;;;;;;5453151;26;20631;-81
2024/05/07 02:59:01;;;;;;;5.20;4.90;;;17.20;84.20;;;;;;5433497;26;20493;-81
2024/05/07 03:01:29;;;;;;;5.23;4.50;;;17.20;84.20;;;;;;5421633;26;20864;-81
2024/05/07 03:03:57;;;;;;;4.97;4.67;;;17.20;84.30;;;;;;5423722;26;20545;-82
2024/05/07 03:06:26;;;;;;;5.37;4.97;;;17.20;84.80;;;;;;5422751;26;20547;-82
2024/05/07 03:08:57;;;;;;;5.00;4.73;;;17.20;84.80;;;;;;5436115;26;20543;-82
2024/05/07 03:11:25;;;;;;;5.67;5.27;;;17.20;84.90;;;;;;5421387;26;20794;-82
2024/05/07 03:13:53;;;;;;;5.30;5.00;;;17.20;85.10;;;;;;5437317;26;21192;-81
2024/05/07 03:16:22;;;;;;;4.80;4.50;;;17.20;85.40;;;;;;5434417;26;20557;-83
2024/05/07 03:18:50;;;;;;;5.03;4.70;;;17.20;85.60;;;;;;5443588;26;20526;-82
2024/05/07 03:21:19;;;;;;;4.47;4.27;;;17.20;86.10;;;;;;5428034;26;20547;-82
2024/05/07 03:23:47;;;;;;;4.67;4.37;;;17.20;86.40;;;;;;5420764;26;20460;-81
2024/05/07 03:26:15;;;;;;;5.03;4.63;;;17.20;85.60;;;;;;5424042;26;20905;-81
2024/05/07 03:28:44;;;;;;;5.40;5.10;;;17.20;85.60;;;;;;5441365;26;20548;-81
2024/05/07 03:31:12;;;;;;;5.40;5.10;;;17.60;86.20;;;;;;5458656;26;20578;-81
2024/05/07 03:33:41;;;;;;;5.17;4.87;;;17.30;85.90;;;;;;5454737;26;20753;-82
2024/05/07 03:36:10;;;;;;;5.07;4.60;;;17.50;86.00;;;;;;5419605;26;21042;-82
2024/05/07 03:38:38;;;;;;;5.27;4.83;;;17.30;85.90;;;;;;5434733;26;20552;-82
2024/05/07 03:41:09;;;;;;;5.27;4.87;;;17.30;85.90;;;;;;5437916;26;20494;-82
2024/05/07 03:43:40;;;;;;;4.57;4.30;;;17.30;86.10;;;;;;5456809;26;20508;-83
2024/05/07 03:46:10;;;;;;;5.57;5.17;;;17.20;86.20;;;;;;5454455;26;20511;-82
2024/05/07 03:48:39;;;;;;;4.70;4.40;;;17.20;86.40;;;;;;5441732;26;20511;-82
2024/05/07 03:51:08;;;;;;;4.90;4.50;;;17.20;86.60;;;;;;5442822;26;20976;-82
2024/05/07 03:53:36;;;;;;;5.10;4.87;;;17.20;86.60;;;;;;5456299;26;20567;-82
2024/05/07 03:56:04;;;;;;;5.90;5.50;;;17.20;86.70;;;;;;5454024;26;20526;-83
2024/05/07 03:58:33;;;;;;;6.20;5.67;;;17.20;86.50;;;;;;5441807;26;20523;-82
2024/05/07 04:01:04;;;;;;;6.33;5.77;;;17.20;86.40;;;;;;5457066;26;20515;-82
2024/05/07 04:03:32;;;;;;;5.47;5.17;;;17.10;86.40;;;;;;5447497;26;21148;-82
2024/05/07 04:06:00;;;;;;;4.97;4.63;;;17.10;86.50;;;;;;5439643;26;20556;-82
2024/05/07 04:08:29;;;;;;;5.30;5.00;;;17.10;87.50;;;;;;5420682;26;20545;-82
2024/05/07 04:10:57;;;;;;;5.40;5.10;;;17.10;87.00;;;;;;5421851;26;20542;-82
2024/05/07 04:13:26;;;;;;;5.17;4.77;;;17.10;87.30;;;;;;5421538;26;20515;-82
2024/05/07 04:15:54;;;;;;;5.83;5.43;;;17.00;87.30;;;;;;5421421;26;20473;-82
2024/05/07 04:18:25;;;;;;;8.20;5.43;;;17.20;87.60;;;;;;5433586;26;20634;-82
2024/05/07 04:20:54;;;;;;;5.60;5.20;;;17.00;87.70;;;;;;5436033;26;20549;-81
2024/05/07 04:23:22;;;;;;;5.20;4.70;;;17.00;87.60;;;;;;5418469;26;20481;-82
2024/05/07 04:25:51;;;;;;;5.30;5.00;;;17.00;87.60;;;;;;5419102;26;20946;-82
2024/05/07 04:28:20;;;;;;;6.13;5.63;;;17.00;86.80;;;;;;5432932;26;20520;-82
2024/05/07 04:30:48;;;;;;;5.43;5.03;;;17.00;86.80;;;;;;5433456;26;20550;-82
2024/05/07 04:33:16;;;;;;;5.40;5.00;;;17.00;86.80;;;;;;5418856;26;20565;-82
2024/05/07 04:35:47;;;;;;;5.33;5.03;;;17.00;87.60;;;;;;5420837;26;20543;-82
2024/05/07 04:38:16;;;;;;;4.93;4.63;;;17.10;86.80;;;;;;5421682;26;20597;-82
2024/05/07 04:40:44;;;;;;;6.30;5.70;;;17.20;86.90;;;;;;5428867;26;20583;-82
2024/05/07 04:43:13;;;;;;;6.00;5.50;;;17.10;86.70;;;;;;5420675;26;20569;-82
2024/05/07 04:45:42;;;;;;;5.30;4.93;;;17.10;86.70;;;;;;5418848;26;20541;-82
2024/05/07 04:48:11;;;;;;;5.60;5.20;;;17.10;86.60;;;;;;5435523;26;20620;-82
2024/05/07 04:50:39;;;;;;;5.60;5.10;;;17.10;86.50;;;;;;5454695;26;20524;-82
2024/05/07 04:53:10;;;;;;;5.57;5.07;;;17.20;86.50;;;;;;5426399;26;20549;-81
2024/05/07 04:55:40;;;;;;;6.20;5.60;;;17.20;86.40;;;;;;5437371;26;21103;-85
2024/05/07 04:58:09;;;;;;;6.43;5.97;;;17.10;86.10;;;;;;5430262;26;20555;-84
2024/05/07 05:00:37;;;;;;;5.50;5.13;;;17.00;86.30;;;;;;5440171;26;20987;-84
2024/05/07 05:03:06;;;;;;;6.77;6.23;;;17.00;86.40;;;;;;5418065;26;20517;-85
2024/05/07 05:05:36;;;;;;;6.27;5.87;;;17.00;86.80;;;;;;5420576;26;20580;-83
2024/05/07 05:08:04;;;;;;;12.23;5.60;;;16.90;87.60;;;;;;5430987;26;20475;-84
2024/05/07 05:10:35;;;;;;;7.13;6.43;;;16.90;88.70;;;;;;5430303;26;20644;-83
2024/05/07 05:13:04;;;;;;;6.60;6.10;;;16.90;87.60;;;;;;5431038;26;20539;-84
2024/05/07 05:15:32;;;;;;;5.43;5.13;;;16.90;87.60;;;;;;5426693;26;20504;-84
2024/05/07 05:18:01;;;;;;;5.93;5.53;;;16.80;87.80;;;;;;5429198;26;20945;-83
2024/05/07 05:20:30;;;;;;;5.10;4.80;;;16.90;88.00;;;;;;5415562;26;20547;-83
2024/05/07 05:22:58;;;;;;;5.40;5.07;;;16.90;88.00;;;;;;5424933;26;20952;-83
2024/05/07 05:25:27;;;;;;;5.33;4.93;;;17.00;88.80;;;;;;5429305;26;20567;-83
2024/05/07 05:27:58;;;;;;;5.90;5.30;;;17.00;88.60;;;;;;5425267;26;21136;-84
2024/05/07 05:30:26;;;;;;;6.50;6.00;;;17.30;88.50;;;;;;5430278;26;20566;-83
2024/05/07 05:32:55;;;;;;;9.60;6.43;;;17.00;87.80;;;;;;5415548;26;20532;-84
2024/05/07 05:35:23;;;;;;;4.73;4.53;;;16.90;89.00;;;;;;5415225;26;20640;-83
2024/05/07 05:37:51;;;;;;;4.43;4.23;;;17.00;89.30;;;;;;5415593;26;20519;-83
2024/05/07 05:40:20;;;;;;;6.93;6.30;;;17.00;89.60;;;;;;5415495;26;20865;-83
2024/05/07 05:42:48;;;;;;;6.87;6.27;;;17.00;88.70;;;;;;5415505;26;20467;-83
2024/05/07 05:45:19;;;;;;;7.47;5.93;;;17.00;88.70;;;;;;5415255;26;20476;-83
2024/05/07 05:47:47;;;;;;;6.07;5.67;;;17.00;88.70;;;;;;5415416;26;20805;-83
2024/05/07 05:50:21;;;;;;;6.67;6.10;;;17.00;89.00;;;;;;5433100;26;21003;-83
2024/05/07 05:52:50;;;;;;;5.50;5.10;;;17.00;89.50;;;;;;5415753;26;20444;-85
2024/05/07 05:55:18;;;;;;;7.33;6.17;;;17.10;89.30;;;;;;5415158;26;20522;-86
2024/05/07 05:57:46;;;;;;;6.90;6.40;;;17.10;88.70;;;;;;5440352;26;20603;-86
2024/05/07 06:00:15;;;;;;;6.73;6.23;;;17.10;88.30;;;;;;5453356;26;20526;-87
2024/05/07 06:02:46;;;;;;;6.20;5.80;;;17.00;88.60;;;;;;5433572;26;20609;-90
2024/05/07 06:05:15;;;;;;;6.73;6.10;;;17.00;88.80;;;;;;5420425;26;20491;-87
2024/05/07 06:07:43;;;;;;;6.23;5.83;;;17.00;89.10;;;;;;5417521;26;20958;-88
2024/05/07 06:10:12;;;;;;;6.63;6.23;;;17.10;89.20;;;;;;5416078;26;20940;-89
2024/05/07 06:12:40;;;;;;;6.87;6.37;;;17.00;88.90;;;;;;5442149;26;21015;-89
2024/05/07 06:15:09;;;;;;;7.63;7.03;;;16.90;89.40;;;;;;5453697;26;20456;-88
2024/05/07 06:17:37;;;;;;;6.90;6.40;;;16.80;89.70;;;;;;5453086;26;20463;-87
2024/05/07 06:20:09;;;;;;;9.10;6.40;;;16.70;90.10;;;;;;5452302;26;20540;-87
2024/05/07 06:22:38;;;;;;;7.27;6.67;;;16.70;90.30;;;;;;5442115;26;20477;-88
2024/05/07 06:25:07;;;;;;;7.67;6.53;;;16.70;90.40;;;;;;5422923;26;20545;-89
2024/05/07 06:27:35;;;;;;;7.07;6.47;;;16.80;90.50;;;;;;5440449;26;21166;-87
2024/05/07 06:30:04;;;;;;;5.93;5.43;;;16.80;90.70;;;;;;5454519;26;20618;-86
2024/05/07 06:32:32;;;;;;;7.87;7.10;;;16.80;90.80;;;;;;5432001;26;20468;-87
2024/05/07 06:35:00;;;;;;;7.53;6.73;;;17.10;90.60;;;;;;5430239;26;20975;-88
2024/05/07 06:37:31;;;;;;;6.67;5.97;;;16.80;90.70;;;;;;5430975;26;20549;-87
2024/05/07 06:40:00;;;;;;;7.50;6.90;;;16.90;90.70;;;;;;5422138;26;20968;-87
2024/05/07 06:42:28;;;;;;;6.03;5.63;;;17.10;90.70;;;;;;5421680;26;21008;-87
2024/05/07 06:44:56;;;;;;;6.93;6.30;;;16.90;90.60;;;;;;5421896;26;21057;-87
2024/05/07 06:47:25;;;;;;;6.73;6.23;;;16.80;90.60;;;;;;5420814;26;20521;-87
2024/05/07 06:49:54;;;;;;;7.40;6.70;;;16.80;90.90;;;;;;5421040;26;20570;-87
2024/05/07 06:52:22;;;;;;;7.30;6.70;;;16.80;91.10;;;;;;5420974;26;20634;-88
2024/05/07 06:54:53;;;;;;;7.83;7.23;;;16.80;91.30;;;;;;5421163;26;20571;-88
2024/05/07 06:57:22;;;;;;;5.97;5.57;;;16.80;91.40;;;;;;5424458;26;20581;-85
2024/05/07 06:59:50;;;;;;;5.90;5.50;;;16.80;91.70;;;;;;5426537;26;20615;-85
2024/05/07 07:02:19;;;;;;;6.30;5.90;;;16.80;91.60;;;;;;5429974;26;20492;-84
2024/05/07 07:04:47;;;;;;;5.90;5.47;;;17.00;91.80;;;;;;5422719;26;20464;-84
2024/05/07 07:07:16;;;;;;;6.80;6.20;;;16.90;91.90;;;;;;5421352;26;20481;-84
2024/05/07 07:09:44;;;;;;;6.20;5.80;;;16.90;91.80;;;;;;5421239;26;20460;-85
2024/05/07 07:12:15;;;;;;;7.27;6.57;;;16.90;91.80;;;;;;5448984;26;20622;-84
2024/05/07 07:14:44;;;;;;;6.40;5.97;;;17.00;91.70;;;;;;5456248;26;20465;-84
2024/05/07 07:17:12;;;;;;;7.07;6.47;;;16.90;91.70;;;;;;5455987;26;20593;-85
2024/05/07 07:19:40;;;;;;;6.50;6.00;;;17.00;91.90;;;;;;5441782;26;20572;-84
2024/05/07 07:22:09;;;;;;;6.90;6.33;;;17.00;92.10;;;;;;5419949;26;20525;-85
2024/05/07 07:24:37;;;;;;;6.60;6.10;;;17.10;92.10;;;;;;5420205;26;20452;-83
2024/05/07 07:27:06;;;;;;;6.43;5.93;;;17.10;91.70;;;;;;5420216;26;20470;-84
2024/05/07 07:29:37;;;;;;;5.67;5.30;;;17.00;91.80;;;;;;5419814;26;20543;-84
2024/05/07 07:32:06;;;;;;;7.47;6.60;;;17.10;92.00;;;;;;5427192;26;20520;-84
2024/05/07 07:34:35;;;;;;;6.57;5.33;;;16.90;92.00;;;;;;5429242;26;20461;-84
2024/05/07 07:37:05;;;;;;;6.50;5.90;;;17.00;92.20;;;;;;5427559;26;20480;-84
2024/05/07 07:39:34;;;;;;;6.90;6.20;;;17.00;92.00;;;;;;5429944;26;20797;-83
2024/05/07 07:42:03;;;;;;;6.23;5.40;;;17.00;91.90;;;;;;5431853;26;20457;-84
2024/05/07 07:44:31;;;;;;;7.57;6.50;;;17.00;92.10;;;;;;5429854;26;20457;-85
2024/05/07 07:47:02;;;;;;;6.20;5.70;;;17.10;91.90;;;;;;5428527;26;20556;-83
2024/05/07 07:49:31;;;;;;;5.80;5.40;;;17.10;91.60;;;;;;5429329;26;20588;-84
2024/05/07 07:52:00;;;;;;;6.80;6.17;;;17.30;91.80;;;;;;5428129;26;20461;-83
2024/05/07 07:54:28;;;;;;;6.27;5.73;;;17.20;92.10;;;;;;5429623;26;20566;-85
2024/05/07 07:56:56;;;;;;;6.93;6.27;;;17.50;92.00;;;;;;5429985;26;20553;-84
2024/05/07 07:59:25;;;;;;;6.50;5.87;;;17.40;91.90;;;;;;5431096;26;20469;-84
2024/05/07 08:01:53;;;;;;;6.33;5.23;;;17.50;91.70;;;;;;5432638;26;20504;-84
2024/05/07 08:04:24;;;;;;;6.47;5.57;;;17.70;91.80;;;;;;5430335;26;20570;-84
2024/05/07 08:06:53;;;;;;;4.70;4.30;;;17.90;92.40;;;;;;5432027;26;20480;-84
2024/05/07 08:09:21;;;;;;;5.37;5.00;;;18.20;93.40;;;;;;5430431;26;20465;-84
2024/05/07 08:11:50;;;;;;;5.13;4.73;;;18.50;95.20;;;;;;5429538;26;20536;-84
2024/05/07 08:14:18;;;;;;;6.53;6.03;;;18.80;94.80;;;;;;5428367;26;20464;-85
2024/05/07 08:16:46;;;;;;;4.57;4.27;;;19.00;93.10;;;;;;5428289;26;20537;-84
2024/05/07 08:19:20;;;;;;;4.80;4.40;;;19.20;92.70;;;;;;5424807;26;20628;-84
2024/05/07 08:21:51;;;;;;;4.70;4.37;;;19.70;92.50;;;;;;5426013;26;20447;-83
2024/05/07 08:24:19;;;;;;;5.80;5.20;;;20.20;92.10;;;;;;5425171;26;20561;-84
2024/05/07 08:26:48;;;;;;;5.57;4.17;;;20.60;90.50;;;;;;5426132;26;20819;-84
2024/05/07 08:29:16;;;;;;;4.67;4.37;;;21.50;90.70;;;;;;5422850;26;21120;-84
2024/05/07 08:31:44;;;;;;;4.30;4.00;;;22.10;87.00;;;;;;5423431;26;20518;-83
2024/05/07 08:34:13;;;;;;;5.50;5.00;;;22.60;84.20;;;;;;5423069;26;20586;-84
2024/05/07 08:36:42;;;;;;;4.20;3.90;;;23.00;83.60;;;;;;5424600;26;20495;-84
2024/05/07 08:39:13;;;;;;;3.53;3.27;;;23.70;80.70;;;;;;5421980;26;20538;-84
2024/05/07 08:41:45;;;;;;;4.37;4.00;;;24.40;77.40;;;;;;5421972;26;20454;-84
2024/05/07 08:44:14;;;;;;;4.17;3.87;;;25.10;73.00;;;;;;5422037;26;20466;-84
2024/05/07 08:46:45;;;;;;;4.97;4.50;;;25.30;70.00;;;;;;5419726;26;21104;-84
2024/05/07 08:49:14;;;;;;;4.33;3.87;;;25.00;69.70;;;;;;5418146;26;20463;-84
2024/05/07 08:51:43;;;;;;;5.10;4.37;;;24.50;70.20;;;;;;5418266;26;20576;-84
2024/05/07 08:54:14;;;;;;;5.13;4.73;;;24.00;70.60;;;;;;5454032;26;20649;-85
2024/05/07 08:56:43;;;;;;;5.10;4.70;;;23.40;71.70;;;;;;5453995;26;21095;-84
2024/05/07 08:59:11;;;;;;;4.40;4.10;;;22.70;72.00;;;;;;5452990;26;20520;-84
2024/05/07 09:01:40;;;;;;;5.17;4.77;;;22.20;73.10;;;;;;5453791;26;20557;-84
2024/05/07 09:04:19;;;;;;;5.30;4.80;;;21.70;73.70;;;;;;5442745;26;21186;-84
2024/05/07 09:06:50;;;;;;;4.87;4.50;;;21.00;75.10;;;;;;5416737;26;20587;-84
2024/05/07 09:09:22;;;;;;;4.47;4.13;;;20.90;76.80;;;;;;5417048;26;20462;-85
2024/05/07 09:11:53;;;;;;;4.80;4.40;;;21.40;78.00;;;;;;5417340;26;20598;-84
2024/05/07 09:14:22;;;;;;;4.00;3.80;;;21.60;77.20;;;;;;5416885;26;20467;-84
2024/05/07 09:16:50;;;;;;;5.50;5.10;;;21.20;76.80;;;;;;5415149;26;20580;-84
2024/05/07 09:19:19;;;;;;;5.57;5.13;;;21.00;77.40;;;;;;5415527;26;20526;-83
2024/05/07 09:21:48;;;;;;;6.37;5.77;;;20.70;77.90;;;;;;5417388;26;20664;-84
2024/05/07 09:24:17;;;;;;;6.50;5.90;;;20.60;79.40;;;;;;5417839;26;20462;-84
2024/05/07 09:26:50;;;;;;;7.80;7.10;;;19.80;80.10;;;;;;5420353;26;20565;-83
2024/05/07 09:29:19;;;;;;;7.67;5.03;;;19.50;81.90;;;;;;5425258;26;20576;-84
2024/05/07 09:31:49;;;;;;;7.93;6.60;;;19.70;83.40;;;;;;5425555;26;20580;-84
2024/05/07 09:34:18;;;;;;;7.30;6.70;;;19.30;83.80;;;;;;5429274;26;20888;-84
2024/05/07 09:36:50;;;;;;;7.90;7.30;;;18.90;84.70;;;;;;5428098;26;20589;-84
2024/05/07 09:39:23;;;;;;;7.83;7.17;;;18.70;85.50;;;;;;5428555;26;20508;-84
2024/05/07 09:42:00;;;;;;;7.40;6.80;;;18.60;86.60;;;;;;5428312;26;20461;-84
2024/05/07 09:44:35;;;;;;;6.47;5.97;;;18.50;87.10;;;;;;5428130;26;20474;-84
2024/05/07 09:47:05;;;;;;;6.23;5.67;;;18.90;87.60;;;;;;5429000;26;20477;-84
2024/05/07 09:49:37;;;;;;;5.23;4.93;;;18.70;87.30;;;;;;5429300;26;20458;-83
2024/05/07 09:52:06;;;;;;;7.47;6.87;;;19.30;87.00;;;;;;5429023;26;20457;-84
2024/05/07 09:54:35;;;;;;;7.47;6.87;;;19.00;86.00;;;;;;5428488;26;20624;-84
2024/05/07 09:57:09;;;;;;;6.57;6.07;;;19.20;86.70;;;;;;5427064;26;20929;-84
2024/05/07 09:59:39;;;;;;;7.10;6.50;;;18.90;85.40;;;;;;5425450;26;20464;-84
2024/05/07 10:02:07;;;;;;;8.40;7.60;;;18.70;84.40;;;;;;5428964;26;20565;-84
2024/05/07 10:04:36;;;;;;;6.53;6.03;;;18.70;85.10;;;;;;5431172;26;20559;-84
2024/05/07 10:07:05;;;;;;;6.50;6.00;;;18.70;85.50;;;;;;5429615;26;20520;-85
2024/05/07 10:09:40;;;;;;;6.27;5.80;;;18.60;85.30;;;;;;5429451;26;20524;-85
2024/05/07 10:12:11;;;;;;;7.53;6.97;;;18.60;85.40;;;;;;5431983;26;20504;-84
2024/05/07 10:14:40;;;;;;;7.00;6.50;;;18.80;85.50;;;;;;5433376;26;20477;-84
2024/05/07 10:17:11;;;;;;;6.50;5.97;;;18.20;85.40;;;;;;5431939;26;20481;-84
2024/05/07 10:19:40;;;;;;;6.37;5.87;;;18.10;86.30;;;;;;5432705;26;20948;-83
2024/05/07 10:22:09;;;;;;;6.20;5.60;;;18.20;86.80;;;;;;5432160;26;20461;-84
2024/05/07 10:24:40;;;;;;;5.37;4.97;;;18.20;87.20;;;;;;5431091;26;20550;-84
2024/05/07 10:27:13;;;;;;;5.87;5.47;;;18.40;87.80;;;;;;5426722;26;21135;-84
2024/05/07 10:29:42;;;;;;;4.80;4.50;;;18.50;86.60;;;;;;5424040;26;20452;-85
2024/05/07 10:32:11;;;;;;;5.50;5.10;;;18.60;86.30;;;;;;5426973;26;20484;-84
2024/05/07 10:34:41;;;;;;;5.77;5.27;;;18.70;86.00;;;;;;5428521;26;20448;-84
2024/05/07 10:37:10;;;;;;;5.10;4.80;;;18.70;85.60;;;;;;5428828;26;20476;-84
2024/05/07 10:39:39;;;;;;;6.40;5.73;;;18.70;85.20;;;;;;5429137;26;20501;-83
2024/05/07 10:42:14;;;;;;;5.77;5.37;;;18.70;84.40;;;;;;5429447;26;20504;-85
2024/05/07 10:44:43;;;;;;;5.80;5.40;;;18.60;84.00;;;;;;5430266;26;20448;-84
2024/05/07 10:47:12;;;;;;;7.30;6.70;;;18.50;83.50;;;;;;5431882;26;20487;-84
2024/05/07 10:49:55;;;;;;;6.87;6.47;;;18.30;84.20;;;;;;5431264;26;20461;-84
2024/05/07 10:52:25;;;;;;;6.73;6.23;;;18.50;85.30;;;;;;5433177;26;20537;-84
2024/05/07 10:54:53;;;;;;;6.20;5.80;;;18.20;85.50;;;;;;5432442;26;20464;-83
2024/05/07 10:57:24;;;;;;;7.23;6.73;;;18.40;85.80;;;;;;5431577;26;20501;-84
2024/05/07 10:59:53;;;;;;;6.20;5.70;;;18.20;85.80;;;;;;5430873;26;20549;-84
2024/05/07 11:02:22;;;;;;;6.57;6.10;;;18.00;86.00;;;;;;5431708;26;20561;-83
2024/05/07 11:04:50;;;;;;;7.30;6.70;;;18.00;86.50;;;;;;5430900;26;21090;-83
2024/05/07 11:07:23;;;;;;;8.57;7.77;;;17.90;87.80;;;;;;5431059;26;20545;-83
2024/05/07 11:09:58;;;;;;;8.10;7.33;;;17.90;88.60;;;;;;5428789;26;20561;-83
2024/05/07 11:12:30;;;;;;;9.30;8.30;;;17.70;88.90;;;;;;5432131;26;20547;-84
2024/05/07 11:14:59;;;;;;;8.03;7.43;;;17.50;89.90;;;;;;5431888;26;20477;-84
2024/05/07 11:17:27;;;;;;;7.70;7.10;;;17.50;90.00;;;;;;5431562;26;20605;-84
2024/05/07 11:20:06;;;;;;;9.03;8.10;;;17.80;90.50;;;;;;5430305;26;20463;-84
2024/05/07 11:22:34;;;;;;;7.73;7.13;;;17.50;90.20;;;;;;5430708;26;20461;-84
2024/05/07 11:25:03;;;;;;;8.57;7.77;;;17.60;90.30;;;;;;5430864;26;20531;-83
2024/05/07 11:27:34;;;;;;;8.70;7.90;;;17.60;90.30;;;;;;5437577;26;20493;-83
2024/05/07 11:30:02;;;;;;;11.67;7.80;;;17.60;90.40;;;;;;5432254;26;20506;-83
2024/05/07 11:32:31;;;;;;;8.53;7.00;;;17.70;90.50;;;;;;5432329;26;20466;-84
2024/05/07 11:35:00;;;;;;;7.27;6.57;;;17.90;90.20;;;;;;5432060;26;20453;-83
2024/05/07 11:37:28;;;;;;;5.97;5.47;;;17.90;88.90;;;;;;5431025;26;20506;-84
2024/05/07 11:39:57;;;;;;;6.90;6.37;;;18.30;89.20;;;;;;5430556;26;20455;-84
2024/05/07 11:42:25;;;;;;;6.60;6.00;;;17.90;88.50;;;;;;5431914;26;20508;-83
2024/05/07 11:44:56;;;;;;;8.23;7.63;;;17.90;88.60;;;;;;5430798;26;20482;-83
2024/05/07 11:47:25;;;;;;;5.60;5.20;;;17.80;89.20;;;;;;5431250;26;20531;-84
2024/05/07 11:49:53;;;;;;;5.60;5.20;;;17.90;89.30;;;;;;5430913;26;20448;-82
2024/05/07 11:52:22;;;;;;;5.57;5.07;;;17.80;88.80;;;;;;5432545;26;20567;-84
2024/05/07 11:54:50;;;;;;;6.07;5.57;;;18.00;88.80;;;;;;5431519;26;20464;-84
2024/05/07 11:57:18;;;;;;;5.57;5.03;;;18.00;87.80;;;;;;5431431;26;20476;-85
2024/05/07 11:59:47;;;;;;;6.07;5.67;;;18.10;87.80;;;;;;5432616;26;20485;-84
2024/05/07 12:02:18;;;;;;;5.67;5.17;;;18.20;88.20;;;;;;5435940;26;20449;-84
2024/05/07 12:04:46;;;;;;;5.30;5.00;;;18.20;88.60;;;;;;5424199;26;20565;-84
2024/05/07 12:07:15;;;;;;;5.70;5.27;;;18.10;87.90;;;;;;5426438;26;20537;-83
2024/05/07 12:09:44;;;;;;;4.90;4.60;;;18.10;87.90;;;;;;5428261;26;20471;-84
2024/05/07 12:12:12;;;;;;;5.83;5.33;;;18.00;88.10;;;;;;5430599;26;20512;-84
2024/05/07 12:14:40;;;;;;;6.00;5.50;;;17.90;88.10;;;;;;5431411;26;20600;-84
2024/05/07 12:17:09;;;;;;;5.13;4.83;;;18.00;88.10;;;;;;5431676;26;20494;-84
2024/05/07 12:19:40;;;;;;;5.17;4.87;;;18.20;88.50;;;;;;5432258;26;20467;-83
2024/05/07 12:27:33;;;;;;;5.00;4.30;;;17.80;87.50;;;;;;5435749;26;20520;-84
2024/05/07 12:30:02;;;;;;;4.30;4.10;;;17.80;87.60;;;;;;5431927;26;20981;-85
2024/05/07 12:32:30;;;;;;;4.57;4.30;;;17.80;87.70;;;;;;5432672;26;20534;-84
2024/05/07 12:35:01;;;;;;;4.10;3.90;;;17.70;87.20;;;;;;5432788;26;20544;-84
2024/05/07 12:37:30;;;;;;;3.80;3.60;;;17.60;87.60;;;;;;5433513;26;20472;-83
2024/05/07 12:39:59;;;;;;;3.33;3.20;;;17.50;87.70;;;;;;5432082;26;20547;-83
2024/05/07 12:42:27;;;;;;;3.90;3.70;;;17.60;88.40;;;;;;5432455;26;20466;-84
2024/05/07 12:44:55;;;;;;;3.60;3.40;;;17.60;88.10;;;;;;5431906;26;20474;-84
2024/05/07 12:47:24;;;;;;;3.37;3.17;;;17.60;87.90;;;;;;5430716;26;20484;-83
2024/05/07 12:49:52;;;;;;;4.33;3.70;;;17.80;88.20;;;;;;5430695;26;20503;-83
2024/05/07 12:52:23;;;;;;;3.50;3.30;;;17.70;87.10;;;;;;5430753;26;20551;-84
2024/05/07 12:54:52;;;;;;;3.70;3.43;;;17.80;87.60;;;;;;5430379;26;20571;-84
2024/05/07 12:57:20;;;;;;;4.63;3.83;;;17.80;87.10;;;;;;5462593;21;20585;-85
2024/05/07 12:59:49;;;;;;;2.93;2.80;;;18.00;86.40;;;;;;5441557;26;20548;-84
2024/05/07 13:02:17;;;;;;;2.90;2.80;;;17.80;86.70;;;;;;5417724;26;20480;-85